sensor_id;sensor_type;location;lat;lon;timestamp;P1;durP1;ratioP1;P2;durP2;ratioP2
9524;SDS011;15940;48.734;9.112;2024-02-21T00:01:31;9.60;;;3.40;;
9524;SDS011;15940;48.734;9.112;2024-02-21T00:03:58;11.00;;;3.03;;
9524;SDS011;15940;48.734;9.112;2024-02-21T00:06:25;5.70;;;3.10;;
9524;SDS011;15940;48.734;9.112;2024-02-21T00:08:53;7.67;;;3.73;;
9524;SDS011;15940;48.734;9.112;2024-02-21T00:11:20;8.10;;;3.33;;
9524;SDS011;15940;48.734;9.112;2024-02-21T00:13:47;6.70;;;3.27;;
9524;SDS011;15940;48.734;9.112;2024-02-21T00:16:15;7.10;;;3.50;;
9524;SDS011;15940;48.734;9.112;2024-02-21T00:18:42;8.70;;;2.90;;
9524;SDS011;15940;48.734;9.112;2024-02-21T00:21:10;7.60;;;3.13;;
9524;SDS011;15940;48.734;9.112;2024-02-21T00:23:40;8.97;;;3.03;;
9524;SDS011;15940;48.734;9.112;2024-02-21T00:26:08;5.80;;;2.83;;
9524;SDS011;15940;48.734;9.112;2024-02-21T00:28:35;5.73;;;2.70;;
9524;SDS011;15940;48.734;9.112;2024-02-21T00:31:02;8.17;;;3.10;;
9524;SDS011;15940;48.734;9.112;2024-02-21T00:33:30;9.37;;;3.23;;
9524;SDS011;15940;48.734;9.112;2024-02-21T00:35:57;7.63;;;3.57;;
9524;SDS011;15940;48.734;9.112;2024-02-21T00:38:23;10.60;;;3.27;;
9524;SDS011;15940;48.734;9.112;2024-02-21T00:40:50;10.63;;;3.37;;
9524;SDS011;15940;48.734;9.112;2024-02-21T00:43:19;7.03;;;3.10;;
9524;SDS011;15940;48.734;9.112;2024-02-21T00:45:48;8.30;;;3.10;;
9524;SDS011;15940;48.734;9.112;2024-02-21T00:48:15;9.63;;;4.03;;
9524;SDS011;15940;48.734;9.112;2024-02-21T00:50:42;10.10;;;3.50;;
9524;SDS011;15940;48.734;9.112;2024-02-21T00:53:09;10.80;;;3.47;;
9524;SDS011;15940;48.734;9.112;2024-02-21T00:55:36;9.47;;;3.43;;
9524;SDS011;15940;48.734;9.112;2024-02-21T00:58:03;9.13;;;3.30;;
9524;SDS011;15940;48.734;9.112;2024-02-21T01:00:31;7.20;;;3.53;;
9524;SDS011;15940;48.734;9.112;2024-02-21T01:02:58;6.87;;;3.00;;
9524;SDS011;15940;48.734;9.112;2024-02-21T01:05:25;8.90;;;2.90;;
9524;SDS011;15940;48.734;9.112;2024-02-21T01:07:54;7.60;;;3.20;;
9524;SDS011;15940;48.734;9.112;2024-02-21T01:10:21;7.97;;;3.43;;
9524;SDS011;15940;48.734;9.112;2024-02-21T01:12:48;9.63;;;3.50;;
9524;SDS011;15940;48.734;9.112;2024-02-21T01:15:14;7.90;;;3.17;;
9524;SDS011;15940;48.734;9.112;2024-02-21T01:17:43;8.13;;;3.80;;
9524;SDS011;15940;48.734;9.112;2024-02-21T01:20:10;12.00;;;3.73;;
9524;SDS011;15940;48.734;9.112;2024-02-21T01:22:37;5.63;;;3.40;;
9524;SDS011;15940;48.734;9.112;2024-02-21T01:25:05;7.07;;;3.40;;
9524;SDS011;15940;48.734;9.112;2024-02-21T01:27:33;8.57;;;3.17;;
9524;SDS011;15940;48.734;9.112;2024-02-21T01:30:00;9.50;;;3.57;;
9524;SDS011;15940;48.734;9.112;2024-02-21T01:32:27;9.83;;;3.47;;
9524;SDS011;15940;48.734;9.112;2024-02-21T01:34:55;9.17;;;3.37;;
9524;SDS011;15940;48.734;9.112;2024-02-21T01:37:22;6.87;;;3.30;;
9524;SDS011;15940;48.734;9.112;2024-02-21T01:39:49;14.20;;;4.63;;
9524;SDS011;15940;48.734;9.112;2024-02-21T01:42:15;9.83;;;3.30;;
9524;SDS011;15940;48.734;9.112;2024-02-21T01:44:42;11.13;;;3.70;;
9524;SDS011;15940;48.734;9.112;2024-02-21T01:47:11;8.93;;;3.30;;
9524;SDS011;15940;48.734;9.112;2024-02-21T01:49:40;5.33;;;3.23;;
9524;SDS011;15940;48.734;9.112;2024-02-21T01:52:08;7.67;;;2.90;;
9524;SDS011;15940;48.734;9.112;2024-02-21T01:54:38;6.87;;;3.17;;
9524;SDS011;15940;48.734;9.112;2024-02-21T01:57:05;6.73;;;3.37;;
9524;SDS011;15940;48.734;9.112;2024-02-21T01:59:32;5.83;;;3.03;;
9524;SDS011;15940;48.734;9.112;2024-02-21T02:02:00;8.43;;;3.30;;
9524;SDS011;15940;48.734;9.112;2024-02-21T02:04:28;6.33;;;3.33;;
9524;SDS011;15940;48.734;9.112;2024-02-21T02:06:55;10.57;;;3.60;;
9524;SDS011;15940;48.734;9.112;2024-02-21T02:09:25;6.73;;;2.87;;
9524;SDS011;15940;48.734;9.112;2024-02-21T02:11:52;7.07;;;3.30;;
9524;SDS011;15940;48.734;9.112;2024-02-21T02:14:18;9.33;;;3.00;;
9524;SDS011;15940;48.734;9.112;2024-02-21T02:16:46;11.93;;;3.50;;
9524;SDS011;15940;48.734;9.112;2024-02-21T02:19:13;7.17;;;3.20;;
9524;SDS011;15940;48.734;9.112;2024-02-21T02:21:42;8.20;;;3.27;;
9524;SDS011;15940;48.734;9.112;2024-02-21T02:24:19;11.33;;;3.27;;
9524;SDS011;15940;48.734;9.112;2024-02-21T02:26:47;9.03;;;3.20;;
9524;SDS011;15940;48.734;9.112;2024-02-21T02:29:14;8.23;;;3.33;;
9524;SDS011;15940;48.734;9.112;2024-02-21T02:31:41;7.63;;;3.30;;
9524;SDS011;15940;48.734;9.112;2024-02-21T02:34:08;8.47;;;2.97;;
9524;SDS011;15940;48.734;9.112;2024-02-21T02:36:35;9.20;;;3.00;;
9524;SDS011;15940;48.734;9.112;2024-02-21T02:39:02;6.97;;;3.10;;
9524;SDS011;15940;48.734;9.112;2024-02-21T02:41:30;7.63;;;3.27;;
9524;SDS011;15940;48.734;9.112;2024-02-21T02:44:00;6.03;;;2.97;;
9524;SDS011;15940;48.734;9.112;2024-02-21T02:46:27;7.43;;;3.03;;
9524;SDS011;15940;48.734;9.112;2024-02-21T02:48:54;7.83;;;2.70;;
9524;SDS011;15940;48.734;9.112;2024-02-21T02:51:21;11.97;;;3.03;;
9524;SDS011;15940;48.734;9.112;2024-02-21T02:53:48;5.43;;;2.50;;
9524;SDS011;15940;48.734;9.112;2024-02-21T02:56:15;4.83;;;2.53;;
9524;SDS011;15940;48.734;9.112;2024-02-21T02:58:43;6.90;;;2.67;;
9524;SDS011;15940;48.734;9.112;2024-02-21T03:01:10;7.90;;;2.80;;
9524;SDS011;15940;48.734;9.112;2024-02-21T03:03:37;4.77;;;2.63;;
9524;SDS011;15940;48.734;9.112;2024-02-21T03:06:04;5.70;;;3.00;;
9524;SDS011;15940;48.734;9.112;2024-02-21T03:08:31;6.03;;;2.90;;
9524;SDS011;15940;48.734;9.112;2024-02-21T03:10:59;9.20;;;3.30;;
9524;SDS011;15940;48.734;9.112;2024-02-21T03:13:26;8.47;;;3.60;;
9524;SDS011;15940;48.734;9.112;2024-02-21T03:15:54;5.93;;;3.17;;
9524;SDS011;15940;48.734;9.112;2024-02-21T03:18:21;7.73;;;2.77;;
9524;SDS011;15940;48.734;9.112;2024-02-21T03:20:48;5.67;;;2.80;;
9524;SDS011;15940;48.734;9.112;2024-02-21T03:23:15;8.97;;;3.03;;
9524;SDS011;15940;48.734;9.112;2024-02-21T03:25:42;8.60;;;2.87;;
9524;SDS011;15940;48.734;9.112;2024-02-21T03:28:09;10.40;;;2.97;;
9524;SDS011;15940;48.734;9.112;2024-02-21T03:30:35;6.47;;;2.70;;
9524;SDS011;15940;48.734;9.112;2024-02-21T03:33:04;5.53;;;2.73;;
9524;SDS011;15940;48.734;9.112;2024-02-21T03:35:31;6.33;;;3.33;;
9524;SDS011;15940;48.734;9.112;2024-02-21T03:37:58;7.17;;;3.20;;
9524;SDS011;15940;48.734;9.112;2024-02-21T03:40:25;6.93;;;2.87;;
9524;SDS011;15940;48.734;9.112;2024-02-21T03:42:52;6.83;;;2.83;;
9524;SDS011;15940;48.734;9.112;2024-02-21T03:45:18;6.60;;;2.97;;
9524;SDS011;15940;48.734;9.112;2024-02-21T03:47:45;6.23;;;2.97;;
9524;SDS011;15940;48.734;9.112;2024-02-21T03:50:14;8.70;;;3.10;;
9524;SDS011;15940;48.734;9.112;2024-02-21T03:52:41;4.57;;;2.70;;
9524;SDS011;15940;48.734;9.112;2024-02-21T03:55:08;8.47;;;2.70;;
9524;SDS011;15940;48.734;9.112;2024-02-21T03:57:35;10.93;;;2.93;;
9524;SDS011;15940;48.734;9.112;2024-02-21T04:00:04;7.17;;;3.00;;
9524;SDS011;15940;48.734;9.112;2024-02-21T04:02:35;5.70;;;2.67;;
9524;SDS011;15940;48.734;9.112;2024-02-21T04:05:03;5.80;;;2.93;;
9524;SDS011;15940;48.734;9.112;2024-02-21T04:07:32;6.40;;;2.43;;
9524;SDS011;15940;48.734;9.112;2024-02-21T04:09:59;9.30;;;3.50;;
9524;SDS011;15940;48.734;9.112;2024-02-21T04:12:26;7.10;;;2.77;;
9524;SDS011;15940;48.734;9.112;2024-02-21T04:14:53;5.93;;;2.70;;
9524;SDS011;15940;48.734;9.112;2024-02-21T04:17:19;5.77;;;2.50;;
9524;SDS011;15940;48.734;9.112;2024-02-21T04:19:46;7.00;;;3.27;;
9524;SDS011;15940;48.734;9.112;2024-02-21T04:22:13;6.67;;;2.83;;
9524;SDS011;15940;48.734;9.112;2024-02-21T04:24:41;6.43;;;2.80;;
9524;SDS011;15940;48.734;9.112;2024-02-21T04:27:08;4.90;;;2.70;;
9524;SDS011;15940;48.734;9.112;2024-02-21T04:29:35;6.00;;;2.77;;
9524;SDS011;15940;48.734;9.112;2024-02-21T04:32:02;6.80;;;2.47;;
9524;SDS011;15940;48.734;9.112;2024-02-21T04:34:30;7.03;;;2.50;;
9524;SDS011;15940;48.734;9.112;2024-02-21T04:36:57;7.80;;;2.67;;
9524;SDS011;15940;48.734;9.112;2024-02-21T04:39:24;8.93;;;2.67;;
9524;SDS011;15940;48.734;9.112;2024-02-21T04:41:52;4.43;;;2.53;;
9524;SDS011;15940;48.734;9.112;2024-02-21T04:44:19;6.93;;;2.70;;
9524;SDS011;15940;48.734;9.112;2024-02-21T04:46:47;7.17;;;2.80;;
9524;SDS011;15940;48.734;9.112;2024-02-21T04:49:14;4.50;;;2.40;;
9524;SDS011;15940;48.734;9.112;2024-02-21T04:51:41;4.60;;;2.20;;
9524;SDS011;15940;48.734;9.112;2024-02-21T04:54:08;9.13;;;2.90;;
9524;SDS011;15940;48.734;9.112;2024-02-21T04:56:35;6.63;;;2.07;;
9524;SDS011;15940;48.734;9.112;2024-02-21T04:59:03;4.70;;;2.37;;
9524;SDS011;15940;48.734;9.112;2024-02-21T05:01:30;4.03;;;2.40;;
9524;SDS011;15940;48.734;9.112;2024-02-21T05:03:57;4.57;;;2.33;;
9524;SDS011;15940;48.734;9.112;2024-02-21T05:06:23;5.87;;;2.40;;
9524;SDS011;15940;48.734;9.112;2024-02-21T05:08:50;6.20;;;2.20;;
9524;SDS011;15940;48.734;9.112;2024-02-21T05:11:17;4.27;;;2.10;;
9524;SDS011;15940;48.734;9.112;2024-02-21T05:13:44;5.63;;;2.33;;
9524;SDS011;15940;48.734;9.112;2024-02-21T05:16:12;4.83;;;2.03;;
9524;SDS011;15940;48.734;9.112;2024-02-21T05:18:40;5.43;;;2.53;;
9524;SDS011;15940;48.734;9.112;2024-02-21T05:21:07;4.57;;;2.37;;
9524;SDS011;15940;48.734;9.112;2024-02-21T05:23:34;6.23;;;2.60;;
9524;SDS011;15940;48.734;9.112;2024-02-21T05:26:01;7.00;;;2.20;;
9524;SDS011;15940;48.734;9.112;2024-02-21T05:28:28;5.20;;;2.60;;
9524;SDS011;15940;48.734;9.112;2024-02-21T05:30:55;3.10;;;2.30;;
9524;SDS011;15940;48.734;9.112;2024-02-21T05:33:23;8.60;;;2.53;;
9524;SDS011;15940;48.734;9.112;2024-02-21T05:35:50;7.20;;;2.70;;
9524;SDS011;15940;48.734;9.112;2024-02-21T05:38:18;8.00;;;2.73;;
9524;SDS011;15940;48.734;9.112;2024-02-21T05:40:45;6.13;;;2.63;;
9524;SDS011;15940;48.734;9.112;2024-02-21T05:43:12;7.30;;;2.43;;
9524;SDS011;15940;48.734;9.112;2024-02-21T05:45:39;6.63;;;2.47;;
9524;SDS011;15940;48.734;9.112;2024-02-21T05:48:07;4.80;;;2.70;;
9524;SDS011;15940;48.734;9.112;2024-02-21T05:50:35;7.20;;;2.60;;
9524;SDS011;15940;48.734;9.112;2024-02-21T05:53:02;4.37;;;2.47;;
9524;SDS011;15940;48.734;9.112;2024-02-21T05:55:29;3.63;;;2.40;;
9524;SDS011;15940;48.734;9.112;2024-02-21T05:57:56;6.70;;;2.40;;
9524;SDS011;15940;48.734;9.112;2024-02-21T06:00:23;4.93;;;2.53;;
9524;SDS011;15940;48.734;9.112;2024-02-21T06:02:50;7.10;;;2.50;;
9524;SDS011;15940;48.734;9.112;2024-02-21T06:05:17;8.50;;;2.37;;
9524;SDS011;15940;48.734;9.112;2024-02-21T06:07:45;7.47;;;3.03;;
9524;SDS011;15940;48.734;9.112;2024-02-21T06:10:12;5.63;;;2.50;;
9524;SDS011;15940;48.734;9.112;2024-02-21T06:12:39;7.53;;;3.00;;
9524;SDS011;15940;48.734;9.112;2024-02-21T06:15:07;5.90;;;2.47;;
9524;SDS011;15940;48.734;9.112;2024-02-21T06:17:34;7.23;;;2.80;;
9524;SDS011;15940;48.734;9.112;2024-02-21T06:20:02;4.23;;;2.40;;
9524;SDS011;15940;48.734;9.112;2024-02-21T06:22:30;5.00;;;3.17;;
9524;SDS011;15940;48.734;9.112;2024-02-21T06:24:58;5.63;;;2.67;;
9524;SDS011;15940;48.734;9.112;2024-02-21T06:27:25;7.53;;;2.73;;
9524;SDS011;15940;48.734;9.112;2024-02-21T06:29:52;5.47;;;2.67;;
9524;SDS011;15940;48.734;9.112;2024-02-21T06:32:18;5.20;;;2.40;;
9524;SDS011;15940;48.734;9.112;2024-02-21T06:34:45;4.27;;;2.10;;
9524;SDS011;15940;48.734;9.112;2024-02-21T06:37:12;5.17;;;2.50;;
9524;SDS011;15940;48.734;9.112;2024-02-21T06:39:39;8.73;;;3.03;;
9524;SDS011;15940;48.734;9.112;2024-02-21T06:42:08;11.33;;;3.17;;
9524;SDS011;15940;48.734;9.112;2024-02-21T06:44:35;8.93;;;2.87;;
9524;SDS011;15940;48.734;9.112;2024-02-21T06:47:05;6.30;;;2.47;;
9524;SDS011;15940;48.734;9.112;2024-02-21T06:49:32;9.23;;;3.00;;
9524;SDS011;15940;48.734;9.112;2024-02-21T06:52:02;8.90;;;2.67;;
9524;SDS011;15940;48.734;9.112;2024-02-21T06:54:30;5.37;;;2.43;;
9524;SDS011;15940;48.734;9.112;2024-02-21T06:56:57;7.70;;;2.60;;
9524;SDS011;15940;48.734;9.112;2024-02-21T06:59:25;11.27;;;2.33;;
9524;SDS011;15940;48.734;9.112;2024-02-21T07:01:53;2.80;;;2.07;;
9524;SDS011;15940;48.734;9.112;2024-02-21T07:04:21;7.10;;;2.20;;
9524;SDS011;15940;48.734;9.112;2024-02-21T07:06:48;6.37;;;2.80;;
9524;SDS011;15940;48.734;9.112;2024-02-21T07:09:14;5.77;;;2.30;;
9524;SDS011;15940;48.734;9.112;2024-02-21T07:11:41;5.17;;;2.13;;
9524;SDS011;15940;48.734;9.112;2024-02-21T07:14:08;3.33;;;2.03;;
9524;SDS011;15940;48.734;9.112;2024-02-21T07:16:37;6.77;;;2.40;;
9524;SDS011;15940;48.734;9.112;2024-02-21T07:19:03;5.50;;;2.40;;
9524;SDS011;15940;48.734;9.112;2024-02-21T07:21:30;7.97;;;2.67;;
9524;SDS011;15940;48.734;9.112;2024-02-21T07:23:57;5.00;;;2.50;;
9524;SDS011;15940;48.734;9.112;2024-02-21T07:26:24;9.43;;;2.90;;
9524;SDS011;15940;48.734;9.112;2024-02-21T07:28:51;5.97;;;2.50;;
9524;SDS011;15940;48.734;9.112;2024-02-21T07:31:18;7.73;;;2.53;;
9524;SDS011;15940;48.734;9.112;2024-02-21T07:33:46;4.70;;;2.53;;
9524;SDS011;15940;48.734;9.112;2024-02-21T07:36:15;7.97;;;2.40;;
9524;SDS011;15940;48.734;9.112;2024-02-21T07:38:50;5.90;;;2.50;;
9524;SDS011;15940;48.734;9.112;2024-02-21T07:41:17;4.73;;;2.10;;
9524;SDS011;15940;48.734;9.112;2024-02-21T07:43:44;4.17;;;2.40;;
9524;SDS011;15940;48.734;9.112;2024-02-21T07:46:10;3.83;;;2.47;;
9524;SDS011;15940;48.734;9.112;2024-02-21T07:48:37;7.77;;;2.33;;
9524;SDS011;15940;48.734;9.112;2024-02-21T07:51:06;6.70;;;2.27;;
9524;SDS011;15940;48.734;9.112;2024-02-21T07:53:32;5.13;;;2.10;;
9524;SDS011;15940;48.734;9.112;2024-02-21T07:55:59;7.90;;;2.70;;
9524;SDS011;15940;48.734;9.112;2024-02-21T07:58:27;6.90;;;1.93;;
9524;SDS011;15940;48.734;9.112;2024-02-21T08:00:54;5.40;;;2.40;;
9524;SDS011;15940;48.734;9.112;2024-02-21T08:03:20;6.23;;;2.53;;
9524;SDS011;15940;48.734;9.112;2024-02-21T08:05:48;5.43;;;2.10;;
9524;SDS011;15940;48.734;9.112;2024-02-21T08:08:16;7.40;;;2.40;;
9524;SDS011;15940;48.734;9.112;2024-02-21T08:10:45;6.03;;;2.20;;
9524;SDS011;15940;48.734;9.112;2024-02-21T08:13:12;11.53;;;2.70;;
9524;SDS011;15940;48.734;9.112;2024-02-21T08:15:39;6.37;;;2.20;;
9524;SDS011;15940;48.734;9.112;2024-02-21T08:18:06;8.73;;;2.50;;
9524;SDS011;15940;48.734;9.112;2024-02-21T08:20:33;6.40;;;2.27;;
9524;SDS011;15940;48.734;9.112;2024-02-21T08:23:00;4.77;;;2.07;;
9524;SDS011;15940;48.734;9.112;2024-02-21T08:25:29;6.13;;;2.47;;
9524;SDS011;15940;48.734;9.112;2024-02-21T08:27:57;9.63;;;2.43;;
9524;SDS011;15940;48.734;9.112;2024-02-21T08:30:25;6.57;;;2.27;;
9524;SDS011;15940;48.734;9.112;2024-02-21T08:32:52;5.20;;;2.40;;
9524;SDS011;15940;48.734;9.112;2024-02-21T08:35:20;4.93;;;2.37;;
9524;SDS011;15940;48.734;9.112;2024-02-21T08:37:47;7.17;;;2.50;;
9524;SDS011;15940;48.734;9.112;2024-02-21T08:40:14;3.10;;;1.93;;
9524;SDS011;15940;48.734;9.112;2024-02-21T08:42:47;4.97;;;2.07;;
9524;SDS011;15940;48.734;9.112;2024-02-21T08:45:14;6.03;;;2.03;;
9524;SDS011;15940;48.734;9.112;2024-02-21T08:47:41;5.50;;;2.30;;
9524;SDS011;15940;48.734;9.112;2024-02-21T08:50:09;6.90;;;2.23;;
9524;SDS011;15940;48.734;9.112;2024-02-21T08:52:36;3.67;;;1.80;;
9524;SDS011;15940;48.734;9.112;2024-02-21T08:55:04;4.13;;;2.20;;
9524;SDS011;15940;48.734;9.112;2024-02-21T08:57:32;4.73;;;2.30;;
9524;SDS011;15940;48.734;9.112;2024-02-21T09:00:03;5.13;;;2.10;;
9524;SDS011;15940;48.734;9.112;2024-02-21T09:02:34;6.63;;;2.40;;
9524;SDS011;15940;48.734;9.112;2024-02-21T09:05:03;4.50;;;1.83;;
9524;SDS011;15940;48.734;9.112;2024-02-21T09:07:31;5.33;;;2.50;;
9524;SDS011;15940;48.734;9.112;2024-02-21T09:09:58;5.63;;;2.50;;
9524;SDS011;15940;48.734;9.112;2024-02-21T09:12:25;7.27;;;3.07;;
9524;SDS011;15940;48.734;9.112;2024-02-21T09:14:52;5.07;;;2.43;;
9524;SDS011;15940;48.734;9.112;2024-02-21T09:17:21;4.73;;;2.30;;
9524;SDS011;15940;48.734;9.112;2024-02-21T09:19:49;7.83;;;2.93;;
9524;SDS011;15940;48.734;9.112;2024-02-21T09:22:16;4.93;;;2.20;;
9524;SDS011;15940;48.734;9.112;2024-02-21T09:24:43;6.80;;;2.40;;
9524;SDS011;15940;48.734;9.112;2024-02-21T09:27:10;2.83;;;1.70;;
9524;SDS011;15940;48.734;9.112;2024-02-21T09:29:37;5.20;;;1.90;;
9524;SDS011;15940;48.734;9.112;2024-02-21T09:32:04;6.00;;;2.10;;
9524;SDS011;15940;48.734;9.112;2024-02-21T09:34:33;7.13;;;2.30;;
9524;SDS011;15940;48.734;9.112;2024-02-21T09:37:00;8.67;;;2.70;;
9524;SDS011;15940;48.734;9.112;2024-02-21T09:39:27;3.87;;;2.00;;
9524;SDS011;15940;48.734;9.112;2024-02-21T09:41:57;6.73;;;2.03;;
9524;SDS011;15940;48.734;9.112;2024-02-21T09:44:33;9.27;;;2.10;;
9524;SDS011;15940;48.734;9.112;2024-02-21T09:47:04;4.47;;;1.80;;
9524;SDS011;15940;48.734;9.112;2024-02-21T09:49:38;6.37;;;2.10;;
9524;SDS011;15940;48.734;9.112;2024-02-21T09:52:08;9.87;;;2.17;;
9524;SDS011;15940;48.734;9.112;2024-02-21T09:54:38;3.47;;;2.10;;
9524;SDS011;15940;48.734;9.112;2024-02-21T09:57:09;4.67;;;1.90;;
9524;SDS011;15940;48.734;9.112;2024-02-21T09:59:37;3.40;;;1.80;;
9524;SDS011;15940;48.734;9.112;2024-02-21T10:02:04;6.50;;;2.07;;
9524;SDS011;15940;48.734;9.112;2024-02-21T10:04:31;6.20;;;1.90;;
9524;SDS011;15940;48.734;9.112;2024-02-21T10:06:59;3.20;;;1.73;;
9524;SDS011;15940;48.734;9.112;2024-02-21T10:09:27;3.90;;;2.00;;
9524;SDS011;15940;48.734;9.112;2024-02-21T10:11:55;4.57;;;1.93;;
9524;SDS011;15940;48.734;9.112;2024-02-21T10:14:22;4.03;;;1.80;;
9524;SDS011;15940;48.734;9.112;2024-02-21T10:16:56;3.47;;;1.53;;
9524;SDS011;15940;48.734;9.112;2024-02-21T10:19:24;4.53;;;1.70;;
9524;SDS011;15940;48.734;9.112;2024-02-21T10:22:02;3.27;;;1.70;;
9524;SDS011;15940;48.734;9.112;2024-02-21T10:24:32;4.30;;;1.70;;
9524;SDS011;15940;48.734;9.112;2024-02-21T10:27:01;2.47;;;1.43;;
9524;SDS011;15940;48.734;9.112;2024-02-21T10:29:29;4.27;;;2.00;;
9524;SDS011;15940;48.734;9.112;2024-02-21T10:32:06;3.93;;;1.53;;
9524;SDS011;15940;48.734;9.112;2024-02-21T10:34:34;5.90;;;1.53;;
9524;SDS011;15940;48.734;9.112;2024-02-21T10:37:03;5.33;;;1.50;;
9524;SDS011;15940;48.734;9.112;2024-02-21T10:39:32;2.20;;;1.37;;
9524;SDS011;15940;48.734;9.112;2024-02-21T10:41:59;4.47;;;1.63;;
9524;SDS011;15940;48.734;9.112;2024-02-21T10:44:29;1.90;;;1.53;;
9524;SDS011;15940;48.734;9.112;2024-02-21T10:46:57;3.23;;;1.60;;
9524;SDS011;15940;48.734;9.112;2024-02-21T10:49:24;1.93;;;1.47;;
9524;SDS011;15940;48.734;9.112;2024-02-21T10:51:54;4.03;;;2.37;;
9524;SDS011;15940;48.734;9.112;2024-02-21T10:54:38;5.93;;;3.10;;
9524;SDS011;15940;48.734;9.112;2024-02-21T10:57:11;4.33;;;2.20;;
9524;SDS011;15940;48.734;9.112;2024-02-21T10:59:40;6.70;;;2.00;;
9524;SDS011;15940;48.734;9.112;2024-02-21T11:02:08;3.73;;;1.63;;
9524;SDS011;15940;48.734;9.112;2024-02-21T11:04:35;2.40;;;1.60;;
9524;SDS011;15940;48.734;9.112;2024-02-21T11:07:03;5.80;;;1.90;;
9524;SDS011;15940;48.734;9.112;2024-02-21T11:09:31;5.57;;;1.90;;
9524;SDS011;15940;48.734;9.112;2024-02-21T11:12:02;5.63;;;1.97;;
9524;SDS011;15940;48.734;9.112;2024-02-21T11:14:30;2.93;;;1.47;;
9524;SDS011;15940;48.734;9.112;2024-02-21T11:17:00;4.33;;;1.90;;
9524;SDS011;15940;48.734;9.112;2024-02-21T11:19:29;3.80;;;1.73;;
9524;SDS011;15940;48.734;9.112;2024-02-21T11:21:56;2.07;;;1.30;;
9524;SDS011;15940;48.734;9.112;2024-02-21T11:24:26;3.57;;;1.43;;
9524;SDS011;15940;48.734;9.112;2024-02-21T11:26:55;3.13;;;1.37;;
9524;SDS011;15940;48.734;9.112;2024-02-21T11:29:26;1.83;;;1.20;;
9524;SDS011;15940;48.734;9.112;2024-02-21T11:31:53;3.33;;;1.40;;
9524;SDS011;15940;48.734;9.112;2024-02-21T11:34:21;2.93;;;1.97;;
9524;SDS011;15940;48.734;9.112;2024-02-21T11:36:48;11.63;;;1.50;;
9524;SDS011;15940;48.734;9.112;2024-02-21T11:39:19;1.67;;;1.40;;
9524;SDS011;15940;48.734;9.112;2024-02-21T11:41:48;2.20;;;1.50;;
9524;SDS011;15940;48.734;9.112;2024-02-21T11:44:29;1.70;;;1.20;;
9524;SDS011;15940;48.734;9.112;2024-02-21T11:46:57;3.93;;;1.70;;
9524;SDS011;15940;48.734;9.112;2024-02-21T11:49:24;3.37;;;1.67;;
9524;SDS011;15940;48.734;9.112;2024-02-21T11:51:57;2.27;;;1.60;;
9524;SDS011;15940;48.734;9.112;2024-02-21T11:54:25;3.37;;;1.70;;
9524;SDS011;15940;48.734;9.112;2024-02-21T11:56:52;3.80;;;1.37;;
9524;SDS011;15940;48.734;9.112;2024-02-21T11:59:19;2.13;;;1.30;;
9524;SDS011;15940;48.734;9.112;2024-02-21T12:01:48;1.80;;;1.33;;
9524;SDS011;15940;48.734;9.112;2024-02-21T12:04:16;2.47;;;1.30;;
9524;SDS011;15940;48.734;9.112;2024-02-21T12:06:45;5.70;;;1.50;;
9524;SDS011;15940;48.734;9.112;2024-02-21T12:09:13;1.50;;;1.10;;
9524;SDS011;15940;48.734;9.112;2024-02-21T12:11:41;2.97;;;1.53;;
9524;SDS011;15940;48.734;9.112;2024-02-21T12:14:08;2.83;;;1.40;;
9524;SDS011;15940;48.734;9.112;2024-02-21T12:16:35;3.73;;;1.77;;
9524;SDS011;15940;48.734;9.112;2024-02-21T12:19:04;2.27;;;1.57;;
9524;SDS011;15940;48.734;9.112;2024-02-21T12:21:32;3.07;;;1.57;;
9524;SDS011;15940;48.734;9.112;2024-02-21T12:24:10;2.80;;;1.60;;
9524;SDS011;15940;48.734;9.112;2024-02-21T12:26:39;4.37;;;1.60;;
9524;SDS011;15940;48.734;9.112;2024-02-21T12:29:06;1.43;;;1.20;;
9524;SDS011;15940;48.734;9.112;2024-02-21T12:31:34;3.47;;;1.60;;
9524;SDS011;15940;48.734;9.112;2024-02-21T12:34:01;1.53;;;1.40;;
9524;SDS011;15940;48.734;9.112;2024-02-21T12:36:30;2.10;;;1.53;;
9524;SDS011;15940;48.734;9.112;2024-02-21T12:38:57;2.97;;;1.57;;
9524;SDS011;15940;48.734;9.112;2024-02-21T12:41:24;2.27;;;1.67;;
9524;SDS011;15940;48.734;9.112;2024-02-21T12:43:52;6.73;;;2.00;;
9524;SDS011;15940;48.734;9.112;2024-02-21T12:46:20;2.03;;;1.27;;
9524;SDS011;15940;48.734;9.112;2024-02-21T12:48:48;2.40;;;1.13;;
9524;SDS011;15940;48.734;9.112;2024-02-21T12:51:14;1.73;;;1.20;;
9524;SDS011;15940;48.734;9.112;2024-02-21T12:53:47;2.00;;;1.17;;
9524;SDS011;15940;48.734;9.112;2024-02-21T12:56:14;2.70;;;1.23;;
9524;SDS011;15940;48.734;9.112;2024-02-21T12:58:41;3.47;;;1.20;;
9524;SDS011;15940;48.734;9.112;2024-02-21T13:01:09;1.40;;;0.97;;
9524;SDS011;15940;48.734;9.112;2024-02-21T13:03:37;1.93;;;1.30;;
9524;SDS011;15940;48.734;9.112;2024-02-21T13:06:04;1.77;;;1.20;;
9524;SDS011;15940;48.734;9.112;2024-02-21T13:08:32;2.37;;;1.17;;
9524;SDS011;15940;48.734;9.112;2024-02-21T13:11:01;2.20;;;1.20;;
9524;SDS011;15940;48.734;9.112;2024-02-21T13:13:29;2.20;;;1.53;;
9524;SDS011;15940;48.734;9.112;2024-02-21T13:15:56;2.50;;;1.20;;
9524;SDS011;15940;48.734;9.112;2024-02-21T13:18:23;2.67;;;1.27;;
9524;SDS011;15940;48.734;9.112;2024-02-21T13:20:50;2.10;;;1.30;;
9524;SDS011;15940;48.734;9.112;2024-02-21T13:23:17;3.23;;;1.20;;
9524;SDS011;15940;48.734;9.112;2024-02-21T13:25:46;2.80;;;1.20;;
9524;SDS011;15940;48.734;9.112;2024-02-21T13:28:15;4.97;;;1.20;;
9524;SDS011;15940;48.734;9.112;2024-02-21T13:30:42;4.07;;;1.20;;
9524;SDS011;15940;48.734;9.112;2024-02-21T13:33:10;4.50;;;1.17;;
9524;SDS011;15940;48.734;9.112;2024-02-21T13:35:37;1.20;;;1.10;;
9524;SDS011;15940;48.734;9.112;2024-02-21T13:38:04;2.47;;;1.20;;
9524;SDS011;15940;48.734;9.112;2024-02-21T13:40:31;1.50;;;1.10;;
9524;SDS011;15940;48.734;9.112;2024-02-21T13:42:58;2.20;;;1.23;;
9524;SDS011;15940;48.734;9.112;2024-02-21T13:45:27;2.50;;;0.97;;
9524;SDS011;15940;48.734;9.112;2024-02-21T13:47:54;1.03;;;0.90;;
9524;SDS011;15940;48.734;9.112;2024-02-21T13:50:27;1.33;;;0.90;;
9524;SDS011;15940;48.734;9.112;2024-02-21T13:52:56;2.83;;;0.97;;
9524;SDS011;15940;48.734;9.112;2024-02-21T13:55:23;2.07;;;1.10;;
9524;SDS011;15940;48.734;9.112;2024-02-21T13:57:51;1.30;;;1.00;;
9524;SDS011;15940;48.734;9.112;2024-02-21T14:00:19;2.17;;;1.10;;
9524;SDS011;15940;48.734;9.112;2024-02-21T14:02:47;2.20;;;0.97;;
9524;SDS011;15940;48.734;9.112;2024-02-21T14:05:14;1.37;;;1.00;;
9524;SDS011;15940;48.734;9.112;2024-02-21T14:07:41;5.00;;;1.30;;
9524;SDS011;15940;48.734;9.112;2024-02-21T14:10:08;2.53;;;0.97;;
9524;SDS011;15940;48.734;9.112;2024-02-21T14:12:35;2.97;;;1.17;;
9524;SDS011;15940;48.734;9.112;2024-02-21T14:15:03;1.47;;;1.00;;
9524;SDS011;15940;48.734;9.112;2024-02-21T14:17:31;2.03;;;1.43;;
9524;SDS011;15940;48.734;9.112;2024-02-21T14:19:59;1.87;;;0.90;;
9524;SDS011;15940;48.734;9.112;2024-02-21T14:22:26;1.20;;;1.10;;
9524;SDS011;15940;48.734;9.112;2024-02-21T14:24:54;1.37;;;1.10;;
9524;SDS011;15940;48.734;9.112;2024-02-21T14:27:21;1.60;;;1.20;;
9524;SDS011;15940;48.734;9.112;2024-02-21T14:29:48;2.63;;;1.30;;
9524;SDS011;15940;48.734;9.112;2024-02-21T14:32:18;2.53;;;1.10;;
9524;SDS011;15940;48.734;9.112;2024-02-21T14:34:45;1.20;;;1.10;;
9524;SDS011;15940;48.734;9.112;2024-02-21T14:37:13;1.47;;;1.10;;
9524;SDS011;15940;48.734;9.112;2024-02-21T14:39:40;1.33;;;1.00;;
9524;SDS011;15940;48.734;9.112;2024-02-21T14:42:08;3.60;;;1.20;;
9524;SDS011;15940;48.734;9.112;2024-02-21T14:44:35;1.83;;;0.93;;
9524;SDS011;15940;48.734;9.112;2024-02-21T14:47:02;1.13;;;0.90;;
9524;SDS011;15940;48.734;9.112;2024-02-21T14:49:29;1.10;;;1.00;;
9524;SDS011;15940;48.734;9.112;2024-02-21T14:51:56;0.60;;;0.60;;
9524;SDS011;15940;48.734;9.112;2024-02-21T14:54:25;1.43;;;1.13;;
9524;SDS011;15940;48.734;9.112;2024-02-21T14:56:52;2.03;;;0.93;;
9524;SDS011;15940;48.734;9.112;2024-02-21T14:59:20;2.17;;;1.10;;
9524;SDS011;15940;48.734;9.112;2024-02-21T15:01:47;2.67;;;1.30;;
9524;SDS011;15940;48.734;9.112;2024-02-21T15:04:14;2.57;;;1.33;;